Terminal Aerodrome Forecast
Issued by NWS Newport/Morehead City, NC

Home | Current Version | Previous Version | Text Only | Print | Product List | Glossary On
Versions: 1 2 3 4 5 6 7 8 9 10 11 12 13 14 15 16 17 18 19
000
FTUS42 KMHX 212327
TAFEWN
TAF
KEWN 212327Z 2200/2224 35010KT P6SM VCSH SCT008 OVC015
     FM220400 36008KT P6SM OVC007
     FM221000 36008KT P6SM SCT030=

USA.gov is the U.S. government's official web portal to all federal, state and local government web resources and services.